Time;durP1;ratioP1;P1;durP2;ratioP2;P2;SDS_P1;SDS_P2;PMS_P1;PMS_P2;Temp;Humidity;BMP_temperature;BMP_pressure;BME280_temperature;BME280_humidity;BME280_pressure;Samples;Min_cycle;Max_cycle;Signal;HPM_P1;HPM_P2
2022/01/18 00:01:46;;;;;;;2.63;1.30;;;5.60;99.90;;;;;;5030947;28;20470;-50
2022/01/18 00:04:12;;;;;;;3.20;1.75;;;5.40;99.90;;;;;;5037619;28;20040;-52
2022/01/18 00:06:41;;;;;;;2.28;1.20;;;5.40;99.90;;;;;;5073149;28;20024;-53
2022/01/18 00:09:07;;;;;;;3.58;1.40;;;5.40;99.90;;;;;;5073391;28;20036;-54
2022/01/18 00:11:44;;;;;;;2.72;1.40;;;5.30;99.90;;;;;;5037701;28;20063;-50
2022/01/18 00:14:22;;;;;;;2.40;1.40;;;5.30;99.90;;;;;;5040804;28;20392;-53
2022/01/18 00:19:57;;;;;;;4.07;1.25;;;5.20;99.90;;;;;;5011077;28;20677;-54
2022/01/18 00:22:26;;;;;;;2.28;0.93;;;5.10;99.90;;;;;;4994498;28;20048;-54
2022/01/18 00:24:53;;;;;;;2.20;0.90;;;5.20;99.90;;;;;;5011127;28;20088;-49
2022/01/18 00:27:19;;;;;;;2.90;1.17;;;5.10;99.90;;;;;;5011047;28;20037;-54
2022/01/18 00:32:54;;;;;;;2.63;1.48;;;5.00;99.90;;;;;;4952602;29;20102;-53
2022/01/18 00:35:19;;;;;;;2.13;1.25;;;5.00;99.90;;;;;;4952591;29;20072;-53
2022/01/18 00:37:53;;;;;;;1.17;0.82;;;4.90;99.90;;;;;;4952264;29;20512;-50
2022/01/18 00:40:18;;;;;;;1.50;1.00;;;4.90;99.90;;;;;;4954685;28;20043;-51
2022/01/18 00:42:44;;;;;;;2.30;1.10;;;4.90;99.90;;;;;;4956118;29;20102;-50
2022/01/18 00:45:10;;;;;;;1.55;1.00;;;4.90;99.90;;;;;;4955929;29;20126;-52
2022/01/18 00:47:36;;;;;;;3.45;1.40;;;4.80;99.90;;;;;;4955948;29;20086;-50
2022/01/18 00:50:03;;;;;;;3.35;1.10;;;4.80;99.90;;;;;;4956106;29;20063;-50
2022/01/18 00:52:34;;;;;;;1.38;0.80;;;4.80;99.90;;;;;;4955787;29;20047;-55
2022/01/18 00:55:01;;;;;;;2.42;1.20;;;4.70;99.90;;;;;;4956075;29;20040;-50
2022/01/18 00:57:27;;;;;;;2.60;1.10;;;4.80;99.90;;;;;;4955693;29;20050;-50
2022/01/18 00:59:53;;;;;;;3.35;1.33;;;4.80;99.90;;;;;;4955691;29;20113;-53
2022/01/18 01:02:19;;;;;;;2.15;1.40;;;4.80;99.90;;;;;;4939518;29;20122;-48
2022/01/18 01:04:50;;;;;;;2.58;1.27;;;4.70;99.90;;;;;;4923772;29;20074;-50
2022/01/18 01:07:20;;;;;;;7.07;1.38;;;4.80;99.90;;;;;;4955615;29;20102;-50
2022/01/18 01:09:47;;;;;;;2.00;1.20;;;4.70;99.90;;;;;;5004569;28;20532;-50
2022/01/18 01:12:14;;;;;;;1.92;1.20;;;4.70;99.90;;;;;;5053782;28;20041;-51
2022/01/18 01:14:41;;;;;;;1.92;1.05;;;4.80;99.90;;;;;;5053413;28;20043;-53
2022/01/18 01:36:04;;;;;;;1.02;0.80;;;4.60;99.90;;;;;;5053052;28;20103;-52
2022/01/18 01:44:04;;;;;;;2.97;1.20;;;4.60;99.90;;;;;;5075535;28;20495;-50
2022/01/18 01:46:31;;;;;;;2.17;1.15;;;4.70;99.90;;;;;;5075183;28;20456;-52
2022/01/18 01:49:00;;;;;;;1.63;1.00;;;4.60;99.90;;;;;;5039151;28;20040;-53
2022/01/18 01:51:30;;;;;;;2.42;1.17;;;4.50;99.90;;;;;;5073967;28;20540;-48
2022/01/18 01:54:02;;;;;;;3.20;1.23;;;4.60;99.90;;;;;;5023401;28;20473;-51
2022/01/18 01:56:29;;;;;;;1.67;0.90;;;4.50;99.90;;;;;;5075232;28;20052;-52
2022/01/18 01:58:55;;;;;;;2.75;1.42;;;4.60;99.90;;;;;;5074926;28;20037;-54
2022/01/18 02:01:21;;;;;;;2.78;0.98;;;4.60;99.90;;;;;;5075061;28;20024;-52
2022/01/18 02:03:48;;;;;;;1.45;0.90;;;4.60;99.90;;;;;;5056083;28;20040;-53
2022/01/18 02:06:14;;;;;;;2.80;1.02;;;4.60;99.90;;;;;;5074942;28;20028;-50
2022/01/18 02:08:39;;;;;;;3.53;1.15;;;4.60;99.90;;;;;;5074735;28;20383;-52
2022/01/18 02:11:05;;;;;;;2.15;1.20;;;4.60;99.90;;;;;;5074834;28;20028;-53
2022/01/18 02:13:33;;;;;;;2.97;1.13;;;4.60;99.90;;;;;;5074696;28;20024;-50
2022/01/18 02:24:02;;;;;;;5.93;1.80;;;4.40;99.90;;;;;;5074757;28;21283;-51
2022/01/18 02:26:28;;;;;;;1.75;1.30;;;4.40;99.90;;;;;;5074547;28;20025;-50
2022/01/18 02:28:57;;;;;;;1.95;1.13;;;4.40;99.90;;;;;;5074388;28;20433;-52
2022/01/18 02:31:23;;;;;;;2.30;1.10;;;4.30;99.90;;;;;;5074424;28;20468;-49
2022/01/18 02:33:49;;;;;;;2.08;1.20;;;4.30;99.90;;;;;;5039097;28;20039;-52
2022/01/18 02:36:15;;;;;;;1.95;1.00;;;4.20;99.90;;;;;;5074336;28;20438;-51
2022/01/18 02:38:41;;;;;;;1.38;1.10;;;4.30;99.90;;;;;;5074513;28;20116;-52
2022/01/18 02:41:07;;;;;;;1.77;0.90;;;4.30;99.90;;;;;;5074392;28;20111;-52
2022/01/18 02:43:50;;;;;;;2.53;1.40;;;4.20;99.90;;;;;;5074258;28;20115;-55
2022/01/18 02:46:17;;;;;;;2.08;1.20;;;4.30;99.90;;;;;;5074364;28;20036;-50
2022/01/18 02:48:43;;;;;;;1.88;1.05;;;4.30;99.90;;;;;;5074062;28;20052;-51
2022/01/18 02:51:09;;;;;;;2.35;1.33;;;4.30;99.90;;;;;;5073938;28;20024;-50
2022/01/18 02:54:00;;;;;;;1.60;1.10;;;4.20;99.90;;;;;;5031771;28;20037;-54
2022/01/18 02:56:28;;;;;;;2.03;0.93;;;4.10;99.90;;;;;;5031741;28;20068;-50
2022/01/18 02:59:02;;;;;;;2.53;1.30;;;4.10;99.90;;;;;;5015114;28;20092;-52
2022/01/18 03:04:12;;;;;;;2.45;1.20;;;4.10;99.90;;;;;;5031789;28;20056;-55
2022/01/18 03:06:38;;;;;;;2.60;0.98;;;4.10;99.90;;;;;;4998827;28;20037;-50
2022/01/18 03:09:04;;;;;;;2.22;1.20;;;4.10;99.90;;;;;;5031462;28;20034;-52
2022/01/18 03:11:30;;;;;;;1.75;1.20;;;4.10;99.90;;;;;;5031644;28;20029;-50
2022/01/18 03:13:55;;;;;;;2.35;1.20;;;4.00;99.90;;;;;;5031396;28;20032;-52
2022/01/18 03:16:21;;;;;;;4.35;1.55;;;4.00;99.90;;;;;;4998711;28;20517;-49
2022/01/18 03:18:47;;;;;;;3.13;1.33;;;4.00;99.90;;;;;;4982272;28;20649;-52
2022/01/18 03:21:13;;;;;;;4.40;1.90;;;4.00;99.90;;;;;;5031401;28;20060;-51
2022/01/18 03:23:38;;;;;;;4.40;1.90;;;4.10;99.90;;;;;;5036395;28;20424;-54
2022/01/18 03:26:14;;;;;;;4.15;1.98;;;4.10;99.90;;;;;;5073552;28;20035;-49
2022/01/18 03:28:41;;;;;;;4.03;2.20;;;4.00;99.90;;;;;;5073301;28;20523;-51
2022/01/18 03:31:07;;;;;;;4.97;2.00;;;4.00;99.90;;;;;;5073423;28;20036;-52
2022/01/18 03:33:34;;;;;;;6.80;3.50;;;4.00;99.90;;;;;;5073136;28;20020;-50
2022/01/18 03:36:00;;;;;;;3.13;1.55;;;3.90;99.90;;;;;;5073334;28;20472;-54
2022/01/18 03:38:30;;;;;;;5.90;2.00;;;3.90;99.90;;;;;;5073581;28;20020;-50
2022/01/18 03:41:01;;;;;;;3.67;2.10;;;3.90;99.90;;;;;;5073753;28;20116;-50
2022/01/18 03:43:28;;;;;;;4.18;2.03;;;4.00;99.90;;;;;;5073456;28;20028;-51
2022/01/18 03:46:00;;;;;;;3.42;1.75;;;3.90;99.90;;;;;;5073456;28;20038;-53
2022/01/18 03:48:30;;;;;;;6.32;2.72;;;3.90;99.90;;;;;;5039476;28;20051;-54
2022/01/18 03:50:57;;;;;;;5.22;1.70;;;3.90;99.90;;;;;;5073332;28;20124;-51
2022/01/18 03:53:23;;;;;;;8.02;3.38;;;3.90;99.90;;;;;;5064442;28;20040;-50
2022/01/18 03:55:50;;;;;;;4.90;2.20;;;4.00;99.90;;;;;;5051331;28;20045;-49
2022/01/18 03:58:16;;;;;;;4.93;1.95;;;4.00;99.90;;;;;;5053224;28;20029;-49
2022/01/18 04:00:42;;;;;;;5.10;2.05;;;3.90;99.90;;;;;;5053358;28;20055;-49
2022/01/18 04:03:08;;;;;;;6.05;2.22;;;3.90;99.90;;;;;;5053319;28;20025;-51
2022/01/18 04:05:33;;;;;;;4.32;1.85;;;3.90;99.90;;;;;;5052980;28;20064;-49
2022/01/18 04:07:59;;;;;;;4.63;1.80;;;3.90;99.90;;;;;;5053340;28;20033;-55
2022/01/18 04:10:25;;;;;;;9.07;3.65;;;3.80;99.90;;;;;;5034573;28;20033;-53
2022/01/18 04:12:51;;;;;;;4.75;3.00;;;3.90;99.90;;;;;;5053238;28;20025;-52
2022/01/18 04:15:18;;;;;;;6.28;2.83;;;3.90;99.90;;;;;;5065412;28;20071;-49
2022/01/18 04:28:40;;;;;;;6.75;2.55;;;3.90;99.90;;;;;;5077059;28;20056;-52
2022/01/18 04:31:08;;;;;;;6.35;3.55;;;3.90;99.90;;;;;;5076977;28;20055;-48
2022/01/18 04:33:35;;;;;;;13.02;6.55;;;3.80;99.90;;;;;;5076783;28;20021;-52
2022/01/18 04:36:02;;;;;;;13.32;7.38;;;3.90;99.90;;;;;;5025141;28;20033;-50
2022/01/18 04:38:28;;;;;;;14.02;7.07;;;3.90;99.90;;;;;;5076904;28;20035;-54
2022/01/18 04:40:58;;;;;;;6.47;2.97;;;3.90;99.90;;;;;;5058498;28;20115;-54
2022/01/18 04:43:40;;;;;;;10.45;4.97;;;3.70;99.90;;;;;;5056204;28;20454;-51
2022/01/18 04:48:50;;;;;;;9.15;4.00;;;3.70;99.90;;;;;;5056302;28;20060;-50
2022/01/18 04:51:16;;;;;;;14.30;5.28;;;3.70;99.90;;;;;;5056521;28;20070;-52
2022/01/18 04:53:51;;;;;;;11.65;5.38;;;3.70;99.90;;;;;;5004525;28;20029;-50
2022/01/18 04:56:26;;;;;;;16.08;7.35;;;3.60;99.90;;;;;;5056458;28;20033;-54
2022/01/18 04:58:52;;;;;;;16.30;6.85;;;3.70;99.90;;;;;;5056542;28;20040;-51
2022/01/18 05:01:18;;;;;;;14.32;5.50;;;3.70;99.90;;;;;;5061880;28;20050;-50
2022/01/18 05:03:43;;;;;;;13.85;5.45;;;3.80;99.90;;;;;;5040827;28;20548;-51
2022/01/18 05:06:12;;;;;;;15.23;6.72;;;3.80;99.90;;;;;;5075696;28;20119;-53
2022/01/18 05:08:39;;;;;;;14.43;6.13;;;3.70;99.90;;;;;;5037655;28;20132;-52
2022/01/18 05:11:08;;;;;;;7.82;3.45;;;3.70;99.90;;;;;;5041468;28;20036;-54
2022/01/18 05:19:05;;;;;;;19.17;9.10;;;3.60;99.90;;;;;;5064325;28;20056;-49
2022/01/18 05:22:55;;;;;;;13.13;6.13;;;3.70;99.90;;;;;;5066070;28;20031;-51
2022/01/18 05:24:23;;;;;;;17.40;7.22;;;3.80;99.90;;;;;;5061526;28;20051;-51
2022/01/18 05:26:49;;;;;;;24.05;11.65;;;3.80;99.90;;;;;;5063748;28;20028;-49
2022/01/18 05:29:15;;;;;;;23.02;8.35;;;3.80;99.90;;;;;;5030486;28;20045;-52
2022/01/18 05:31:41;;;;;;;16.02;7.70;;;3.90;99.90;;;;;;5037458;28;20423;-51
2022/01/18 05:34:07;;;;;;;15.38;7.45;;;3.90;99.90;;;;;;5019689;28;20033;-50
2022/01/18 05:36:33;;;;;;;17.02;9.57;;;3.90;99.90;;;;;;5055513;28;20527;-50
2022/01/18 05:38:58;;;;;;;18.63;9.68;;;3.90;99.90;;;;;;5068836;28;20620;-51
2022/01/18 05:41:24;;;;;;;22.00;11.20;;;4.00;99.90;;;;;;5073435;28;20058;-52
2022/01/18 05:43:50;;;;;;;18.85;10.52;;;4.00;99.90;;;;;;4989669;28;20123;-51
2022/01/18 05:46:17;;;;;;;18.20;9.43;;;4.00;99.90;;;;;;5071951;28;20073;-51
2022/01/18 05:48:42;;;;;;;16.38;8.27;;;4.00;99.90;;;;;;5008290;28;20051;-51
2022/01/18 05:51:08;;;;;;;9.15;5.10;;;3.90;99.90;;;;;;5038545;28;20052;-49
2022/01/18 05:53:35;;;;;;;4.45;2.60;;;3.90;99.90;;;;;;5074482;28;20036;-52
2022/01/18 05:56:05;;;;;;;6.40;3.00;;;4.00;99.90;;;;;;5074883;28;20466;-52
2022/01/18 05:58:31;;;;;;;8.65;4.40;;;3.90;99.90;;;;;;5019983;28;20115;-50
2022/01/18 06:00:56;;;;;;;8.07;2.90;;;3.80;99.90;;;;;;5054742;28;20052;-52
2022/01/18 06:03:28;;;;;;;5.40;2.33;;;3.70;99.90;;;;;;5057668;28;20449;-51
2022/01/18 06:08:41;;;;;;;4.53;2.20;;;3.60;99.90;;;;;;5043277;28;20654;-50
2022/01/18 06:11:07;;;;;;;6.43;2.40;;;3.60;99.90;;;;;;5032324;28;20037;-51
2022/01/18 06:13:34;;;;;;;6.75;2.10;;;3.70;99.90;;;;;;5058149;28;20061;-50
2022/01/18 06:16:00;;;;;;;6.75;2.80;;;3.60;99.90;;;;;;5063207;28;20491;-50
2022/01/18 06:18:26;;;;;;;5.82;2.92;;;3.60;99.90;;;;;;5063226;28;20108;-52
2022/01/18 06:20:53;;;;;;;8.45;4.15;;;3.60;99.90;;;;;;5064619;28;20108;-49
2022/01/18 06:23:19;;;;;;;6.93;3.22;;;3.60;99.90;;;;;;5064157;28;20082;-47
2022/01/18 06:25:45;;;;;;;8.20;3.60;;;3.50;99.90;;;;;;5068905;28;20127;-48
2022/01/18 06:28:10;;;;;;;6.93;3.38;;;3.50;99.90;;;;;;5039352;28;20119;-49
2022/01/18 06:30:36;;;;;;;10.57;3.63;;;3.60;99.90;;;;;;5072926;28;20033;-50
2022/01/18 06:33:02;;;;;;;5.82;3.17;;;3.70;99.90;;;;;;5021619;28;20377;-50
2022/01/18 06:35:28;;;;;;;16.67;8.98;;;3.70;99.90;;;;;;5074244;28;20388;-55
2022/01/18 06:37:54;;;;;;;10.70;4.90;;;3.80;99.90;;;;;;5072809;28;20464;-54
2022/01/18 06:40:20;;;;;;;6.38;3.88;;;3.80;99.90;;;;;;5035287;28;20068;-49
2022/01/18 06:42:46;;;;;;;5.85;3.90;;;3.90;99.90;;;;;;5072283;28;20020;-53
2022/01/18 06:45:12;;;;;;;6.88;3.58;;;3.90;99.90;;;;;;5064949;28;20143;-54
2022/01/18 06:47:39;;;;;;;10.68;6.90;;;;;;;;;;5072139;28;20056;-54
2022/01/18 06:50:06;;;;;;;17.17;7.95;;;5.60;99.90;;;;;;5073812;28;20024;-52
2022/01/18 06:52:32;;;;;;;12.88;7.13;;;7.20;99.90;;;;;;5074146;28;20035;-52
2022/01/18 06:54:57;;;;;;;20.75;11.07;;;8.50;99.90;;;;;;5074014;28;20049;-53
2022/01/18 06:57:23;;;;;;;23.75;12.00;;;10.20;99.90;;;;;;5022120;28;20033;-54
2022/01/18 06:59:49;;;;;;;11.75;7.40;;;11.30;96.20;;;;;;5022059;28;20046;-52
2022/01/18 07:02:15;;;;;;;21.35;13.07;;;12.30;93.50;;;;;;5073810;28;20032;-58
2022/01/18 07:04:41;;;;;;;12.82;9.13;;;13.20;91.30;;;;;;5073750;28;20033;-50
2022/01/18 07:07:06;;;;;;;18.20;11.70;;;14.50;90.90;;;;;;5073559;28;20524;-54
2022/01/18 07:09:34;;;;;;;17.70;12.30;;;14.80;86.60;;;;;;5073700;28;20048;-54
2022/01/18 07:12:00;;;;;;;14.68;9.15;;;14.80;84.80;;;;;;5073572;28;20041;-53
2022/01/18 07:14:27;;;;;;;11.15;6.72;;;15.00;84.30;;;;;;5073849;28;20025;-51
2022/01/18 07:16:52;;;;;;;7.05;4.72;;;15.70;83.20;;;;;;4978543;28;20037;-51
2022/01/18 07:19:18;;;;;;;8.20;4.50;;;;;;;;;;4979103;28;20117;-51
2022/01/18 07:21:44;;;;;;;6.05;3.70;;;15.60;94.60;;;;;;5011727;28;20037;-57
2022/01/18 07:24:36;;;;;;;9.32;5.75;;;16.00;80.10;;;;;;4978592;28;20088;-55
2022/01/18 07:27:03;;;;;;;8.15;5.63;;;15.70;78.90;;;;;;4998576;28;20049;-53
2022/01/18 07:29:28;;;;;;;9.43;5.85;;;16.30;86.50;;;;;;4994644;28;20104;-56
2022/01/18 07:31:54;;;;;;;19.13;9.32;;;16.60;83.40;;;;;;4961524;28;20069;-55
2022/01/18 07:34:20;;;;;;;8.07;5.03;;;16.80;88.00;;;;;;5011003;28;20109;-53
2022/01/18 07:36:46;;;;;;;40.67;18.38;;;16.80;77.80;;;;;;5011047;28;20080;-51
2022/01/18 07:39:11;;;;;;;17.77;10.90;;;17.00;75.90;;;;;;4969951;28;20125;-54
2022/01/18 07:41:38;;;;;;;11.43;7.47;;;17.60;76.20;;;;;;5010458;28;20037;-52
2022/01/18 07:44:04;;;;;;;10.02;5.10;;;17.70;75.00;;;;;;5010615;28;20249;-53
2022/01/18 07:46:30;;;;;;;10.98;6.65;;;17.80;74.60;;;;;;5010565;28;20596;-51
2022/01/18 07:48:56;;;;;;;10.60;6.05;;;;;;;;;;5006793;28;20036;-51
2022/01/18 07:51:21;;;;;;;9.02;5.50;;;18.70;73.30;;;;;;5059422;28;20029;-52
2022/01/18 07:53:47;;;;;;;9.10;6.20;;;;;;;;;;5053130;28;20032;-48
2022/01/18 07:56:13;;;;;;;9.63;7.05;;;18.90;90.90;;;;;;5053188;28;20427;-49
2022/01/18 07:58:39;;;;;;;10.27;6.28;;;18.30;72.30;;;;;;5053323;28;20117;-52
2022/01/18 08:01:05;;;;;;;8.23;6.60;;;17.30;72.80;;;;;;5018040;28;20381;-52
2022/01/18 08:03:33;;;;;;;9.77;7.65;;;;;;;;;;5052986;28;20029;-49
2022/01/18 08:05:59;;;;;;;11.43;10.32;;;;;;;;;;5053115;28;20029;-51
2022/01/18 08:08:28;;;;;;;19.98;13.98;;;17.60;76.20;;;;;;5055426;28;20016;-52
2022/01/18 08:10:57;;;;;;;19.67;17.15;;;18.00;73.30;;;;;;5046272;28;20060;-49
2022/01/18 08:13:28;;;;;;;22.80;21.08;;;17.30;72.80;;;;;;5060525;28;20142;-52
2022/01/18 08:16:09;;;;;;;11.60;9.63;;;18.50;72.50;;;;;;5057330;28;20029;-51
2022/01/18 08:18:36;;;;;;;12.45;11.35;;;18.10;72.10;;;;;;5059043;28;20036;-51
2022/01/18 08:21:01;;;;;;;11.95;9.27;;;18.60;72.00;;;;;;5019818;28;20480;-50
2022/01/18 08:23:27;;;;;;;13.88;12.68;;;18.00;72.00;;;;;;5052903;28;20056;-52
2022/01/18 08:25:53;;;;;;;10.45;8.55;;;18.00;72.20;;;;;;5017855;28;20382;-54
2022/01/18 08:28:19;;;;;;;15.05;13.65;;;18.60;72.00;;;;;;5052983;28;20061;-52
2022/01/18 08:30:44;;;;;;;12.88;10.73;;;18.60;71.40;;;;;;5001255;28;20137;-51
2022/01/18 08:33:10;;;;;;;22.42;20.25;;;19.00;71.10;;;;;;5052951;28;20024;-50
2022/01/18 08:35:37;;;;;;;10.55;8.85;;;19.00;69.80;;;;;;5017712;28;20037;-50
2022/01/18 08:38:04;;;;;;;33.25;14.95;;;18.40;71.00;;;;;;5018083;28;20041;-48
2022/01/18 08:40:30;;;;;;;14.73;13.52;;;18.10;70.60;;;;;;5052959;28;20025;-52
2022/01/18 08:42:55;;;;;;;15.52;14.20;;;18.10;70.40;;;;;;5052743;28;20028;-50
2022/01/18 08:45:21;;;;;;;11.60;8.65;;;17.20;71.70;;;;;;5004425;28;20697;-49
2022/01/18 08:47:50;;;;;;;16.08;14.77;;;17.00;72.90;;;;;;5052607;28;20531;-53
2022/01/18 08:50:17;;;;;;;11.52;8.00;;;18.20;71.60;;;;;;5052031;28;20037;-49
2022/01/18 08:52:44;;;;;;;10.75;9.73;;;17.50;71.80;;;;;;5052556;28;20524;-49
2022/01/18 08:55:10;;;;;;;12.27;11.00;;;16.90;72.40;;;;;;5052752;28;20151;-47
2022/01/18 08:57:36;;;;;;;10.52;8.45;;;17.30;72.50;;;;;;5008019;28;20527;-48
2022/01/18 09:00:03;;;;;;;14.52;13.50;;;16.60;73.20;;;;;;5055999;28;20025;-48
2022/01/18 09:02:29;;;;;;;11.55;10.48;;;17.50;71.40;;;;;;5070938;28;20107;-47
2022/01/18 09:04:54;;;;;;;9.55;8.65;;;16.30;73.40;;;;;;5031056;28;20119;-47
2022/01/18 09:07:22;;;;;;;9.52;7.70;;;;;;;;;;5066144;28;20039;-48
2022/01/18 09:09:51;;;;;;;10.40;9.13;;;15.60;73.10;;;;;;5076005;28;20376;-48
2022/01/18 09:12:17;;;;;;;10.07;9.05;;;15.90;73.90;;;;;;5041599;28;20411;-48
2022/01/18 09:14:43;;;;;;;43.47;41.20;;;16.50;75.10;;;;;;5075906;28;20555;-50
2022/01/18 09:17:09;;;;;;;10.68;7.03;;;16.50;72.40;;;;;;5057283;28;20488;-51
2022/01/18 09:19:35;;;;;;;11.32;10.25;;;16.00;74.40;;;;;;5007124;28;20044;-49
2022/01/18 09:22:03;;;;;;;11.27;10.38;;;16.40;75.90;;;;;;5074888;28;20674;-49
2022/01/18 09:24:29;;;;;;;15.52;10.93;;;15.50;73.40;;;;;;5023723;28;20032;-47
2022/01/18 09:26:55;;;;;;;29.02;26.60;;;14.40;71.50;;;;;;5075936;28;20024;-49
2022/01/18 09:29:21;;;;;;;14.57;13.38;;;14.80;72.70;;;;;;5075436;28;20065;-52
2022/01/18 09:31:47;;;;;;;4.68;2.90;;;15.20;73.10;;;;;;5075388;28;20107;-48
2022/01/18 09:34:13;;;;;;;4.60;2.05;;;14.30;72.00;;;;;;5001887;28;20045;-47
2022/01/18 09:36:38;;;;;;;9.15;2.60;;;12.20;75.60;;;;;;5032694;28;20119;-50
2022/01/18 09:39:04;;;;;;;9.98;9.05;;;11.40;93.80;;;;;;5030781;28;20036;-51
2022/01/18 09:41:37;;;;;;;9.43;8.65;;;;;;;;;;5061891;28;20031;-48
2022/01/18 09:44:03;;;;;;;13.32;12.30;;;10.70;79.40;;;;;;5060288;28;20044;-50
2022/01/18 09:46:28;;;;;;;13.13;10.68;;;10.90;96.50;;;;;;5036721;28;20692;-49
2022/01/18 09:48:56;;;;;;;8.13;4.93;;;11.70;79.40;;;;;;4983101;28;20132;-51
2022/01/18 09:51:22;;;;;;;14.40;13.30;;;12.00;78.30;;;;;;5028164;28;20025;-50
2022/01/18 09:53:49;;;;;;;16.85;15.85;;;11.10;77.50;;;;;;5025083;28;20025;-53
2022/01/18 09:56:15;;;;;;;9.63;9.02;;;11.50;78.30;;;;;;5021974;28;20036;-50
2022/01/18 09:58:41;;;;;;;5.35;2.75;;;12.70;86.30;;;;;;5022934;28;20034;-46
2022/01/18 10:01:07;;;;;;;7.63;6.32;;;12.00;76.40;;;;;;5021971;28;20022;-51
2022/01/18 10:03:38;;;;;;;13.00;12.25;;;11.30;76.90;;;;;;5021905;28;20037;-49
2022/01/18 10:06:06;;;;;;;31.50;29.73;;;11.00;88.50;;;;;;5008985;28;20045;-50
2022/01/18 10:08:33;;;;;;;20.48;19.15;;;10.90;76.40;;;;;;5029618;28;20033;-49
2022/01/18 10:11:04;;;;;;;19.85;18.77;;;10.20;77.30;;;;;;5034174;28;20040;-50
2022/01/18 10:13:32;;;;;;;27.85;25.38;;;9.90;95.50;;;;;;5033783;28;20067;-50
2022/01/18 10:16:11;;;;;;;21.98;19.63;;;10.60;95.60;;;;;;5015814;28;20072;-49
2022/01/18 10:19:08;;;;;;;27.60;13.68;;;10.70;95.40;;;;;;5032799;28;20030;-48
2022/01/18 10:21:45;;;;;;;33.72;31.63;;;10.50;97.70;;;;;;4973545;28;20235;-50
2022/01/18 10:24:20;;;;;;;12.00;8.52;;;10.50;96.90;;;;;;4973771;28;20058;-51
2022/01/18 10:26:48;;;;;;;36.13;34.25;;;11.50;96.50;;;;;;4973754;28;20074;-50
2022/01/18 10:29:15;;;;;;;6.82;3.70;;;11.20;96.90;;;;;;4973584;28;20113;-49
2022/01/18 10:37:00;;;;;;;22.77;20.80;;;9.20;98.50;;;;;;4973421;28;20125;-49
2022/01/18 10:39:32;;;;;;;32.28;30.35;;;10.30;97.60;;;;;;4973683;28;20150;-49
2022/01/18 10:42:02;;;;;;;19.13;17.73;;;9.80;97.50;;;;;;4937864;29;20488;-48
2022/01/18 10:44:33;;;;;;;16.10;14.90;;;9.50;93.00;;;;;;4952642;29;20047;-49
2022/01/18 10:46:59;;;;;;;25.38;22.55;;;9.10;81.20;;;;;;4921494;29;20051;-49
2022/01/18 10:49:25;;;;;;;42.03;28.67;;;10.20;82.00;;;;;;4954151;29;20043;-48
2022/01/18 10:51:58;;;;;;;60.13;56.65;;;10.50;80.20;;;;;;4953686;29;20138;-49
2022/01/18 10:54:37;;;;;;;33.42;31.05;;;11.90;78.90;;;;;;4944282;29;20062;-49
2022/01/18 10:57:06;;;;;;;16.55;11.07;;;12.20;77.60;;;;;;4960735;28;20129;-48
2022/01/18 10:59:32;;;;;;;27.88;25.90;;;9.80;78.70;;;;;;4990878;28;20490;-49
2022/01/18 11:02:05;;;;;;;18.98;16.52;;;11.10;78.20;;;;;;4991820;28;20133;-49
2022/01/18 11:04:31;;;;;;;14.25;12.85;;;11.00;76.90;;;;;;4974671;28;20076;-51
2022/01/18 11:07:00;;;;;;;26.50;18.10;;;10.70;78.60;;;;;;4924689;28;20475;-50
2022/01/18 11:09:26;;;;;;;13.60;12.50;;;11.80;78.00;;;;;;4988756;28;20423;-48
2022/01/18 11:11:52;;;;;;;12.95;11.77;;;11.60;76.90;;;;;;4944591;28;20054;-48
2022/01/18 11:14:21;;;;;;;16.58;15.10;;;11.50;78.10;;;;;;4994570;28;20041;-49
2022/01/18 11:16:49;;;;;;;14.82;13.43;;;11.30;78.20;;;;;;5010867;28;20052;-49
2022/01/18 11:19:39;;;;;;;20.85;19.55;;;10.90;78.80;;;;;;4978334;28;20120;-48
2022/01/18 11:22:10;;;;;;;21.08;16.73;;;11.80;77.90;;;;;;5008943;28;20040;-49
2022/01/18 11:24:39;;;;;;;7.85;7.20;;;12.00;77.50;;;;;;5009840;28;20415;-50
2022/01/18 11:27:10;;;;;;;9.60;5.78;;;11.10;78.90;;;;;;5011129;28;20466;-48
2022/01/18 11:29:37;;;;;;;10.25;6.13;;;10.70;80.10;;;;;;5010957;28;20041;-50
2022/01/18 11:32:04;;;;;;;16.05;7.32;;;9.90;81.70;;;;;;4998118;28;20540;-50
2022/01/18 11:35:02;;;;;;;25.67;15.60;;;9.40;81.50;;;;;;5013949;28;20064;-49
2022/01/18 11:37:33;;;;;;;16.42;14.73;;;10.20;82.40;;;;;;5031567;28;20048;-51
2022/01/18 11:40:10;;;;;;;13.93;4.85;;;11.40;79.20;;;;;;5033322;28;20030;-52
2022/01/18 11:43:02;;;;;;;7.68;6.82;;;11.40;78.20;;;;;;5033501;28;20029;-52
2022/01/18 11:45:34;;;;;;;14.18;8.70;;;10.10;79.80;;;;;;5033422;28;20060;-52
2022/01/18 11:48:23;;;;;;;13.88;7.97;;;9.90;82.00;;;;;;5055774;28;20048;-50
2022/01/18 11:51:06;;;;;;;13.50;8.88;;;9.50;81.30;;;;;;5073063;28;20078;-50
2022/01/18 11:53:54;;;;;;;22.85;7.40;;;9.70;82.40;;;;;;5073179;28;20059;-51
2022/01/18 11:56:42;;;;;;;7.00;2.63;;;9.80;82.20;;;;;;5072350;28;20037;-51
2022/01/18 11:59:15;;;;;;;10.25;7.78;;;9.20;83.80;;;;;;5055016;28;20039;-51
2022/01/18 12:02:08;;;;;;;17.38;9.63;;;10.30;82.70;;;;;;5072914;28;20503;-52
2022/01/18 12:07:34;;;;;;;8.90;4.20;;;10.00;82.60;;;;;;5073097;28;20064;-50
2022/01/18 12:10:06;;;;;;;10.05;3.00;;;9.20;85.10;;;;;;5073085;28;20043;-52
2022/01/18 12:12:45;;;;;;;7.13;3.10;;;8.80;84.80;;;;;;5073086;28;20029;-52
2022/01/18 12:15:21;;;;;;;9.02;3.75;;;8.60;86.70;;;;;;5072975;28;20032;-53
2022/01/18 12:17:57;;;;;;;8.30;2.72;;;8.90;86.20;;;;;;5073012;28;20067;-52
2022/01/18 12:20:35;;;;;;;326.92;295.38;;;8.00;85.50;;;;;;5073286;28;20040;-52
2022/01/18 12:23:05;;;;;;;7.28;2.67;;;7.40;88.40;;;;;;5073001;28;20425;-53
2022/01/18 12:25:35;;;;;;;21.67;8.77;;;7.70;93.90;;;;;;5072945;28;20071;-51
2022/01/18 12:28:48;;;;;;;27.50;12.20;;;7.40;92.60;;;;;;5072273;28;20032;-52
2022/01/18 12:34:25;;;;;;;16.40;7.15;;;6.90;91.00;;;;;;5054991;28;20044;-51
2022/01/18 12:36:52;;;;;;;17.65;8.80;;;7.40;89.70;;;;;;5074672;28;20044;-51
2022/01/18 12:39:18;;;;;;;10.60;4.72;;;7.90;89.90;;;;;;5073949;28;20086;-52
2022/01/18 12:41:50;;;;;;;11.00;4.03;;;7.50;90.00;;;;;;5069701;28;20028;-51
2022/01/18 12:44:22;;;;;;;23.00;9.00;;;7.50;90.20;;;;;;5056520;28;20128;-52
2022/01/18 12:46:57;;;;;;;30.05;8.70;;;7.70;90.80;;;;;;5056349;28;20029;-51
2022/01/18 12:49:23;;;;;;;9.88;3.00;;;7.60;90.80;;;;;;5056285;28;20032;-50
2022/01/18 12:52:00;;;;;;;6.68;3.00;;;7.70;90.00;;;;;;5056331;28;20090;-50
2022/01/18 12:54:38;;;;;;;32.42;13.02;;;7.60;90.40;;;;;;5056522;28;20069;-51
2022/01/18 12:57:14;;;;;;;9.85;3.47;;;7.50;90.80;;;;;;5056065;28;20562;-50
2022/01/18 12:59:58;;;;;;;8.35;4.20;;;7.60;90.60;;;;;;5055813;28;20048;-49
2022/01/18 13:02:24;;;;;;;17.92;6.97;;;7.50;90.50;;;;;;5056103;28;20037;-51
2022/01/18 13:05:00;;;;;;;36.33;15.07;;;7.40;91.00;;;;;;5055862;28;20366;-52
2022/01/18 13:07:26;;;;;;;14.98;5.60;;;7.40;90.70;;;;;;5055940;28;20138;-50
2022/01/18 13:10:00;;;;;;;5.07;2.10;;;7.70;90.80;;;;;;5055379;28;20032;-51
2022/01/18 13:12:40;;;;;;;4.78;2.08;;;7.50;90.40;;;;;;5053008;28;20041;-53
2022/01/18 13:15:08;;;;;;;8.30;3.75;;;7.30;91.20;;;;;;5055437;28;20036;-50
2022/01/18 13:23:45;;;;;;;11.35;4.38;;;7.20;91.80;;;;;;5068355;28;20432;-53
2022/01/18 13:26:11;;;;;;;18.77;7.07;;;7.20;92.10;;;;;;5074379;28;20048;-52
2022/01/18 13:28:42;;;;;;;11.55;6.65;;;7.70;92.20;;;;;;5061241;28;20032;-53
2022/01/18 13:31:15;;;;;;;24.90;8.20;;;7.60;91.10;;;;;;5067139;28;20031;-51
2022/01/18 13:33:55;;;;;;;11.93;6.30;;;7.60;91.90;;;;;;5031271;28;20044;-51
2022/01/18 13:36:21;;;;;;;17.15;7.32;;;7.50;92.20;;;;;;5050019;28;20073;-54
2022/01/18 13:38:49;;;;;;;21.85;8.70;;;7.50;91.50;;;;;;5064481;28;20036;-50
2022/01/18 13:41:14;;;;;;;9.48;4.07;;;7.70;91.70;;;;;;5075219;28;20396;-50
2022/01/18 13:43:42;;;;;;;14.90;6.18;;;7.70;91.40;;;;;;5015976;28;20044;-48
2022/01/18 13:46:09;;;;;;;13.13;5.38;;;7.60;91.40;;;;;;4984968;28;20136;-53
2022/01/18 13:48:37;;;;;;;22.35;10.70;;;7.50;91.60;;;;;;5027129;28;20045;-51
2022/01/18 13:51:14;;;;;;;16.17;8.95;;;7.40;92.00;;;;;;5019804;28;20045;-50
2022/01/18 13:53:41;;;;;;;27.27;13.73;;;7.60;92.10;;;;;;5021706;28;20041;-50
2022/01/18 13:56:18;;;;;;;6.10;2.55;;;8.70;96.20;;;;;;5022107;28;20107;-52
2022/01/18 13:58:51;;;;;;;7.68;3.10;;;8.20;96.20;;;;;;4971513;28;20042;-53
2022/01/18 14:01:28;;;;;;;7.65;4.05;;;7.70;91.40;;;;;;5018439;28;20033;-52
2022/01/18 14:03:55;;;;;;;13.60;7.10;;;7.50;91.10;;;;;;5013088;28;20143;-52
2022/01/18 14:06:35;;;;;;;14.30;5.70;;;7.50;91.70;;;;;;5013170;28;20120;-49
2022/01/18 14:09:02;;;;;;;12.40;5.35;;;7.60;92.00;;;;;;5012973;28;20038;-53
2022/01/18 14:11:35;;;;;;;8.73;3.60;;;7.50;92.10;;;;;;5012920;28;20076;-52
2022/01/18 14:14:14;;;;;;;13.88;6.63;;;7.10;91.60;;;;;;5027768;28;20037;-53
2022/01/18 14:16:52;;;;;;;7.65;4.03;;;7.20;92.00;;;;;;5069718;28;20029;-52
2022/01/18 14:19:38;;;;;;;16.63;5.82;;;7.10;92.30;;;;;;5019557;28;20037;-48